sensor_id;sensor_type;location;lat;lon;timestamp;P1;durP1;ratioP1;P2;durP2;ratioP2
75456;SDS011;64036;48.266;14.192;2024-01-11T00:01:46;27.00;;;11.50;;
75456;SDS011;64036;48.266;14.192;2024-01-11T00:04:21;25.50;;;11.70;;
75456;SDS011;64036;48.266;14.192;2024-01-11T00:06:46;33.20;;;12.80;;
75456;SDS011;64036;48.266;14.192;2024-01-11T00:09:17;27.10;;;12.60;;
75456;SDS011;64036;48.266;14.192;2024-01-11T00:11:48;33.50;;;13.30;;
75456;SDS011;64036;48.266;14.192;2024-01-11T00:14:45;31.50;;;12.90;;
75456;SDS011;64036;48.266;14.192;2024-01-11T00:17:21;29.70;;;12.20;;
75456;SDS011;64036;48.266;14.192;2024-01-11T00:19:50;23.00;;;11.10;;
75456;SDS011;64036;48.266;14.192;2024-01-11T00:22:36;27.30;;;11.50;;
75456;SDS011;64036;48.266;14.192;2024-01-11T00:25:05;31.10;;;11.70;;
75456;SDS011;64036;48.266;14.192;2024-01-11T00:27:32;32.10;;;14.30;;
75456;SDS011;64036;48.266;14.192;2024-01-11T00:32:55;25.60;;;12.00;;
75456;SDS011;64036;48.266;14.192;2024-01-11T00:35:33;30.40;;;12.10;;
75456;SDS011;64036;48.266;14.192;2024-01-11T00:38:07;28.60;;;12.40;;
75456;SDS011;64036;48.266;14.192;2024-01-11T00:40:35;28.40;;;12.20;;
75456;SDS011;64036;48.266;14.192;2024-01-11T00:43:08;27.10;;;12.20;;
75456;SDS011;64036;48.266;14.192;2024-01-11T00:45:34;26.50;;;10.90;;
75456;SDS011;64036;48.266;14.192;2024-01-11T00:48:00;24.90;;;10.30;;
75456;SDS011;64036;48.266;14.192;2024-01-11T00:50:26;27.50;;;11.80;;
75456;SDS011;64036;48.266;14.192;2024-01-11T00:52:52;27.50;;;11.50;;
75456;SDS011;64036;48.266;14.192;2024-01-11T00:55:17;27.40;;;11.60;;
75456;SDS011;64036;48.266;14.192;2024-01-11T00:57:43;30.50;;;12.60;;
75456;SDS011;64036;48.266;14.192;2024-01-11T01:00:23;26.80;;;12.60;;
75456;SDS011;64036;48.266;14.192;2024-01-11T01:03:01;28.50;;;11.90;;
75456;SDS011;64036;48.266;14.192;2024-01-11T01:05:44;26.80;;;11.80;;
75456;SDS011;64036;48.266;14.192;2024-01-11T01:08:18;30.60;;;12.60;;
75456;SDS011;64036;48.266;14.192;2024-01-11T01:10:47;27.30;;;10.60;;
75456;SDS011;64036;48.266;14.192;2024-01-11T01:13:15;20.70;;;9.60;;
75456;SDS011;64036;48.266;14.192;2024-01-11T01:15:46;34.30;;;12.00;;
75456;SDS011;64036;48.266;14.192;2024-01-11T01:18:17;32.30;;;13.20;;
75456;SDS011;64036;48.266;14.192;2024-01-11T01:21:08;28.40;;;12.60;;
75456;SDS011;64036;48.266;14.192;2024-01-11T01:23:36;28.60;;;12.70;;
75456;SDS011;64036;48.266;14.192;2024-01-11T01:26:11;28.30;;;12.50;;
75456;SDS011;64036;48.266;14.192;2024-01-11T01:28:37;30.20;;;12.70;;
75456;SDS011;64036;48.266;14.192;2024-01-11T01:31:16;28.10;;;11.40;;
75456;SDS011;64036;48.266;14.192;2024-01-11T01:33:42;30.10;;;12.90;;
75456;SDS011;64036;48.266;14.192;2024-01-11T01:36:09;30.70;;;12.50;;
75456;SDS011;64036;48.266;14.192;2024-01-11T01:38:35;32.10;;;13.10;;
75456;SDS011;64036;48.266;14.192;2024-01-11T01:41:04;25.60;;;11.00;;
75456;SDS011;64036;48.266;14.192;2024-01-11T01:43:29;34.10;;;12.70;;
75456;SDS011;64036;48.266;14.192;2024-01-11T01:45:55;28.90;;;13.70;;
75456;SDS011;64036;48.266;14.192;2024-01-11T01:48:37;30.50;;;12.70;;
75456;SDS011;64036;48.266;14.192;2024-01-11T01:51:08;27.10;;;10.70;;
75456;SDS011;64036;48.266;14.192;2024-01-11T01:53:34;30.60;;;11.40;;
75456;SDS011;64036;48.266;14.192;2024-01-11T01:56:00;27.30;;;12.50;;
75456;SDS011;64036;48.266;14.192;2024-01-11T01:58:25;30.20;;;12.90;;
75456;SDS011;64036;48.266;14.192;2024-01-11T02:00:51;28.70;;;12.90;;
75456;SDS011;64036;48.266;14.192;2024-01-11T02:03:18;28.60;;;11.80;;
75456;SDS011;64036;48.266;14.192;2024-01-11T02:05:44;28.10;;;13.00;;
75456;SDS011;64036;48.266;14.192;2024-01-11T02:08:15;28.10;;;11.60;;
75456;SDS011;64036;48.266;14.192;2024-01-11T02:10:41;30.00;;;12.50;;
75456;SDS011;64036;48.266;14.192;2024-01-11T02:13:08;27.50;;;12.60;;
75456;SDS011;64036;48.266;14.192;2024-01-11T02:15:34;29.70;;;12.20;;
75456;SDS011;64036;48.266;14.192;2024-01-11T02:18:00;28.20;;;12.50;;
75456;SDS011;64036;48.266;14.192;2024-01-11T02:20:29;26.60;;;12.20;;
75456;SDS011;64036;48.266;14.192;2024-01-11T02:23:05;33.60;;;14.00;;
75456;SDS011;64036;48.266;14.192;2024-01-11T02:25:33;29.20;;;12.80;;
75456;SDS011;64036;48.266;14.192;2024-01-11T02:27:58;31.50;;;12.80;;
75456;SDS011;64036;48.266;14.192;2024-01-11T02:30:27;34.30;;;12.40;;
75456;SDS011;64036;48.266;14.192;2024-01-11T02:32:56;35.80;;;15.60;;
75456;SDS011;64036;48.266;14.192;2024-01-11T02:35:31;27.50;;;11.50;;
75456;SDS011;64036;48.266;14.192;2024-01-11T02:38:00;28.20;;;13.20;;
75456;SDS011;64036;48.266;14.192;2024-01-11T02:40:26;26.80;;;10.90;;
75456;SDS011;64036;48.266;14.192;2024-01-11T02:42:52;29.10;;;11.30;;
75456;SDS011;64036;48.266;14.192;2024-01-11T02:45:21;23.30;;;9.90;;
75456;SDS011;64036;48.266;14.192;2024-01-11T02:47:46;33.10;;;13.40;;
75456;SDS011;64036;48.266;14.192;2024-01-11T02:50:12;31.40;;;12.60;;
75456;SDS011;64036;48.266;14.192;2024-01-11T02:52:40;27.40;;;12.00;;
75456;SDS011;64036;48.266;14.192;2024-01-11T02:55:09;28.00;;;11.50;;
75456;SDS011;64036;48.266;14.192;2024-01-11T02:57:36;27.60;;;12.60;;
75456;SDS011;64036;48.266;14.192;2024-01-11T03:00:02;24.50;;;11.30;;
75456;SDS011;64036;48.266;14.192;2024-01-11T03:02:28;26.10;;;11.70;;
75456;SDS011;64036;48.266;14.192;2024-01-11T03:04:54;32.40;;;13.00;;
75456;SDS011;64036;48.266;14.192;2024-01-11T03:07:29;27.10;;;10.50;;
75456;SDS011;64036;48.266;14.192;2024-01-11T03:09:56;34.10;;;13.20;;
75456;SDS011;64036;48.266;14.192;2024-01-11T03:12:22;28.90;;;13.10;;
75456;SDS011;64036;48.266;14.192;2024-01-11T03:14:48;29.50;;;12.90;;
75456;SDS011;64036;48.266;14.192;2024-01-11T03:17:16;29.80;;;12.80;;
75456;SDS011;64036;48.266;14.192;2024-01-11T03:19:51;29.60;;;12.90;;
75456;SDS011;64036;48.266;14.192;2024-01-11T03:22:45;27.60;;;11.50;;
75456;SDS011;64036;48.266;14.192;2024-01-11T03:25:12;30.60;;;13.50;;
75456;SDS011;64036;48.266;14.192;2024-01-11T03:27:43;29.60;;;12.30;;
75456;SDS011;64036;48.266;14.192;2024-01-11T03:33:00;31.90;;;14.00;;
75456;SDS011;64036;48.266;14.192;2024-01-11T03:35:36;31.60;;;15.50;;
75456;SDS011;64036;48.266;14.192;2024-01-11T03:38:04;37.60;;;16.80;;
75456;SDS011;64036;48.266;14.192;2024-01-11T03:40:30;27.20;;;13.30;;
75456;SDS011;64036;48.266;14.192;2024-01-11T03:43:01;35.40;;;15.70;;
75456;SDS011;64036;48.266;14.192;2024-01-11T03:45:27;29.70;;;13.80;;
75456;SDS011;64036;48.266;14.192;2024-01-11T03:47:53;39.70;;;18.20;;
75456;SDS011;64036;48.266;14.192;2024-01-11T03:50:22;32.10;;;14.70;;
75456;SDS011;64036;48.266;14.192;2024-01-11T03:53:07;23.50;;;10.20;;
75456;SDS011;64036;48.266;14.192;2024-01-11T03:55:38;24.70;;;11.70;;
75456;SDS011;64036;48.266;14.192;2024-01-11T03:58:19;25.60;;;11.90;;
75456;SDS011;64036;48.266;14.192;2024-01-11T04:00:45;29.00;;;11.80;;
75456;SDS011;64036;48.266;14.192;2024-01-11T04:03:11;30.00;;;12.30;;
75456;SDS011;64036;48.266;14.192;2024-01-11T04:05:40;30.70;;;13.30;;
75456;SDS011;64036;48.266;14.192;2024-01-11T04:08:14;32.80;;;13.90;;
75456;SDS011;64036;48.266;14.192;2024-01-11T04:10:40;34.00;;;13.30;;
75456;SDS011;64036;48.266;14.192;2024-01-11T04:13:26;31.60;;;13.60;;
75456;SDS011;64036;48.266;14.192;2024-01-11T04:15:57;35.10;;;13.60;;
75456;SDS011;64036;48.266;14.192;2024-01-11T04:18:22;33.60;;;14.70;;
75456;SDS011;64036;48.266;14.192;2024-01-11T04:20:48;33.80;;;15.20;;
75456;SDS011;64036;48.266;14.192;2024-01-11T04:23:14;36.90;;;15.40;;
75456;SDS011;64036;48.266;14.192;2024-01-11T04:25:59;28.50;;;13.80;;
75456;SDS011;64036;48.266;14.192;2024-01-11T04:28:44;24.80;;;10.50;;
75456;SDS011;64036;48.266;14.192;2024-01-11T04:31:37;36.50;;;16.70;;
75456;SDS011;64036;48.266;14.192;2024-01-11T04:34:35;41.80;;;17.20;;
75456;SDS011;64036;48.266;14.192;2024-01-11T04:40:17;33.50;;;14.80;;
75456;SDS011;64036;48.266;14.192;2024-01-11T04:43:00;37.20;;;15.70;;
75456;SDS011;64036;48.266;14.192;2024-01-11T04:45:28;32.50;;;13.40;;
75456;SDS011;64036;48.266;14.192;2024-01-11T04:47:54;28.50;;;11.90;;
75456;SDS011;64036;48.266;14.192;2024-01-11T04:50:20;34.70;;;14.50;;
75456;SDS011;64036;48.266;14.192;2024-01-11T04:53:03;35.30;;;13.20;;
75456;SDS011;64036;48.266;14.192;2024-01-11T04:55:39;31.40;;;15.20;;
75456;SDS011;64036;48.266;14.192;2024-01-11T04:58:13;30.80;;;13.50;;
75456;SDS011;64036;48.266;14.192;2024-01-11T05:01:17;32.70;;;13.70;;
75456;SDS011;64036;48.266;14.192;2024-01-11T05:07:02;29.00;;;10.60;;
75456;SDS011;64036;48.266;14.192;2024-01-11T05:09:32;27.90;;;11.80;;
75456;SDS011;64036;48.266;14.192;2024-01-11T05:12:06;29.80;;;13.00;;
75456;SDS011;64036;48.266;14.192;2024-01-11T05:14:37;27.60;;;11.60;;
75456;SDS011;64036;48.266;14.192;2024-01-11T05:17:15;25.70;;;10.20;;
75456;SDS011;64036;48.266;14.192;2024-01-11T05:19:50;33.00;;;13.20;;
75456;SDS011;64036;48.266;14.192;2024-01-11T05:25:54;23.20;;;9.70;;
75456;SDS011;64036;48.266;14.192;2024-01-11T05:29:02;19.10;;;7.30;;
75456;SDS011;64036;48.266;14.192;2024-01-11T05:31:53;28.80;;;12.90;;
75456;SDS011;64036;48.266;14.192;2024-01-11T05:35:15;31.00;;;12.80;;
75456;SDS011;64036;48.266;14.192;2024-01-11T05:38:27;19.80;;;8.70;;
75456;SDS011;64036;48.266;14.192;2024-01-11T05:41:39;21.30;;;10.30;;
75456;SDS011;64036;48.266;14.192;2024-01-11T05:44:19;25.40;;;11.10;;
75456;SDS011;64036;48.266;14.192;2024-01-11T05:47:07;25.30;;;11.90;;
75456;SDS011;64036;48.266;14.192;2024-01-11T05:49:41;28.80;;;12.50;;
75456;SDS011;64036;48.266;14.192;2024-01-11T05:52:12;29.90;;;12.30;;
75456;SDS011;64036;48.266;14.192;2024-01-11T06:08:39;12.40;;;7.00;;
75456;SDS011;64036;48.266;14.192;2024-01-11T06:11:25;26.10;;;11.60;;
75456;SDS011;64036;48.266;14.192;2024-01-11T06:14:22;25.80;;;13.00;;
75456;SDS011;64036;48.266;14.192;2024-01-11T06:20:14;28.60;;;12.30;;
75456;SDS011;64036;48.266;14.192;2024-01-11T06:22:55;35.10;;;14.00;;
75456;SDS011;64036;48.266;14.192;2024-01-11T06:25:33;24.80;;;11.80;;
75456;SDS011;64036;48.266;14.192;2024-01-11T06:28:28;35.80;;;14.90;;
75456;SDS011;64036;48.266;14.192;2024-01-11T06:31:09;37.00;;;15.00;;
75456;SDS011;64036;48.266;14.192;2024-01-11T06:33:38;26.00;;;12.30;;
75456;SDS011;64036;48.266;14.192;2024-01-11T06:36:07;26.90;;;12.70;;
75456;SDS011;64036;48.266;14.192;2024-01-11T06:38:33;38.10;;;16.60;;
75456;SDS011;64036;48.266;14.192;2024-01-11T06:40:59;33.30;;;15.20;;
75456;SDS011;64036;48.266;14.192;2024-01-11T06:43:27;40.50;;;16.80;;
75456;SDS011;64036;48.266;14.192;2024-01-11T06:45:53;34.90;;;15.20;;
75456;SDS011;64036;48.266;14.192;2024-01-11T06:51:40;31.80;;;15.40;;
75456;SDS011;64036;48.266;14.192;2024-01-11T06:54:07;25.60;;;11.30;;
75456;SDS011;64036;48.266;14.192;2024-01-11T06:56:38;36.40;;;16.40;;
75456;SDS011;64036;48.266;14.192;2024-01-11T06:59:15;33.30;;;16.30;;
75456;SDS011;64036;48.266;14.192;2024-01-11T07:01:41;29.80;;;13.60;;
75456;SDS011;64036;48.266;14.192;2024-01-11T07:04:06;18.50;;;9.60;;
75456;SDS011;64036;48.266;14.192;2024-01-11T07:06:35;26.30;;;13.00;;
75456;SDS011;64036;48.266;14.192;2024-01-11T07:09:44;29.20;;;13.00;;
75456;SDS011;64036;48.266;14.192;2024-01-11T07:12:37;38.20;;;17.60;;
75456;SDS011;64036;48.266;14.192;2024-01-11T07:15:13;36.30;;;16.80;;
75456;SDS011;64036;48.266;14.192;2024-01-11T07:17:49;38.00;;;16.80;;
75456;SDS011;64036;48.266;14.192;2024-01-11T07:20:17;30.80;;;14.60;;
75456;SDS011;64036;48.266;14.192;2024-01-11T07:22:55;35.90;;;17.70;;
75456;SDS011;64036;48.266;14.192;2024-01-11T07:25:47;38.60;;;18.00;;
75456;SDS011;64036;48.266;14.192;2024-01-11T07:28:16;35.40;;;16.50;;
75456;SDS011;64036;48.266;14.192;2024-01-11T07:30:42;33.90;;;17.50;;
75456;SDS011;64036;48.266;14.192;2024-01-11T07:33:14;30.50;;;15.90;;
75456;SDS011;64036;48.266;14.192;2024-01-11T07:35:43;36.60;;;17.70;;
75456;SDS011;64036;48.266;14.192;2024-01-11T07:38:09;39.50;;;19.10;;
75456;SDS011;64036;48.266;14.192;2024-01-11T07:40:35;34.20;;;17.50;;
75456;SDS011;64036;48.266;14.192;2024-01-11T07:43:01;35.60;;;17.50;;
75456;SDS011;64036;48.266;14.192;2024-01-11T07:45:27;32.80;;;16.60;;
75456;SDS011;64036;48.266;14.192;2024-01-11T07:47:55;33.90;;;17.70;;
75456;SDS011;64036;48.266;14.192;2024-01-11T07:50:22;36.80;;;20.20;;
75456;SDS011;64036;48.266;14.192;2024-01-11T07:52:48;35.00;;;17.90;;
75456;SDS011;64036;48.266;14.192;2024-01-11T07:55:14;35.00;;;18.40;;
75456;SDS011;64036;48.266;14.192;2024-01-11T07:57:39;41.40;;;21.60;;
75456;SDS011;64036;48.266;14.192;2024-01-11T08:00:06;43.40;;;21.20;;
75456;SDS011;64036;48.266;14.192;2024-01-11T08:02:33;32.60;;;17.90;;
75456;SDS011;64036;48.266;14.192;2024-01-11T08:04:59;36.70;;;20.20;;
75456;SDS011;64036;48.266;14.192;2024-01-11T08:07:28;36.60;;;21.30;;
75456;SDS011;64036;48.266;14.192;2024-01-11T08:09:54;35.20;;;20.50;;
75456;SDS011;64036;48.266;14.192;2024-01-11T08:12:20;34.60;;;19.00;;
75456;SDS011;64036;48.266;14.192;2024-01-11T08:14:46;33.80;;;19.50;;
75456;SDS011;64036;48.266;14.192;2024-01-11T08:17:14;33.30;;;19.50;;
75456;SDS011;64036;48.266;14.192;2024-01-11T08:19:41;36.40;;;20.90;;
75456;SDS011;64036;48.266;14.192;2024-01-11T08:22:10;33.60;;;19.60;;
75456;SDS011;64036;48.266;14.192;2024-01-11T08:24:37;35.00;;;20.70;;
75456;SDS011;64036;48.266;14.192;2024-01-11T08:27:04;32.70;;;19.20;;
75456;SDS011;64036;48.266;14.192;2024-01-11T08:29:30;32.80;;;19.30;;
75456;SDS011;64036;48.266;14.192;2024-01-11T08:31:56;34.30;;;20.40;;
75456;SDS011;64036;48.266;14.192;2024-01-11T08:34:22;34.40;;;20.20;;
75456;SDS011;64036;48.266;14.192;2024-01-11T08:36:48;35.10;;;20.20;;
75456;SDS011;64036;48.266;14.192;2024-01-11T08:39:14;27.70;;;16.80;;
75456;SDS011;64036;48.266;14.192;2024-01-11T08:41:40;33.10;;;19.70;;
75456;SDS011;64036;48.266;14.192;2024-01-11T08:44:06;31.00;;;18.50;;
75456;SDS011;64036;48.266;14.192;2024-01-11T08:46:32;33.90;;;20.60;;
75456;SDS011;64036;48.266;14.192;2024-01-11T08:49:02;30.50;;;17.60;;
75456;SDS011;64036;48.266;14.192;2024-01-11T08:51:31;30.80;;;18.20;;
75456;SDS011;64036;48.266;14.192;2024-01-11T08:53:57;34.00;;;19.70;;
75456;SDS011;64036;48.266;14.192;2024-01-11T08:56:23;34.30;;;19.90;;
75456;SDS011;64036;48.266;14.192;2024-01-11T08:58:49;32.50;;;19.50;;
75456;SDS011;64036;48.266;14.192;2024-01-11T09:01:15;36.20;;;20.50;;
75456;SDS011;64036;48.266;14.192;2024-01-11T09:03:41;30.50;;;18.40;;
75456;SDS011;64036;48.266;14.192;2024-01-11T09:06:07;31.60;;;19.70;;
75456;SDS011;64036;48.266;14.192;2024-01-11T09:08:32;29.10;;;18.30;;
75456;SDS011;64036;48.266;14.192;2024-01-11T09:10:59;30.80;;;18.70;;
75456;SDS011;64036;48.266;14.192;2024-01-11T09:13:25;32.60;;;19.70;;
75456;SDS011;64036;48.266;14.192;2024-01-11T09:15:52;31.20;;;19.40;;
75456;SDS011;64036;48.266;14.192;2024-01-11T09:18:19;28.70;;;17.50;;
75456;SDS011;64036;48.266;14.192;2024-01-11T09:20:45;30.90;;;18.30;;
75456;SDS011;64036;48.266;14.192;2024-01-11T09:23:11;29.50;;;18.20;;
75456;SDS011;64036;48.266;14.192;2024-01-11T09:25:37;32.10;;;19.20;;
75456;SDS011;64036;48.266;14.192;2024-01-11T09:28:02;31.30;;;19.00;;
75456;SDS011;64036;48.266;14.192;2024-01-11T09:30:29;28.70;;;18.10;;
75456;SDS011;64036;48.266;14.192;2024-01-11T09:32:54;31.60;;;19.00;;
75456;SDS011;64036;48.266;14.192;2024-01-11T09:35:22;29.10;;;16.90;;
75456;SDS011;64036;48.266;14.192;2024-01-11T09:37:49;29.10;;;17.60;;
75456;SDS011;64036;48.266;14.192;2024-01-11T09:40:15;32.70;;;18.20;;
75456;SDS011;64036;48.266;14.192;2024-01-11T09:42:42;31.30;;;19.10;;
75456;SDS011;64036;48.266;14.192;2024-01-11T09:45:10;32.30;;;18.60;;
75456;SDS011;64036;48.266;14.192;2024-01-11T09:47:39;35.10;;;19.50;;
75456;SDS011;64036;48.266;14.192;2024-01-11T09:50:06;33.70;;;19.10;;
75456;SDS011;64036;48.266;14.192;2024-01-11T09:52:33;31.10;;;18.20;;
75456;SDS011;64036;48.266;14.192;2024-01-11T09:54:59;29.40;;;17.00;;
75456;SDS011;64036;48.266;14.192;2024-01-11T09:57:29;31.10;;;18.30;;
75456;SDS011;64036;48.266;14.192;2024-01-11T09:59:57;36.10;;;20.00;;
75456;SDS011;64036;48.266;14.192;2024-01-11T10:02:23;32.50;;;18.30;;
75456;SDS011;64036;48.266;14.192;2024-01-11T10:04:52;31.40;;;18.50;;
75456;SDS011;64036;48.266;14.192;2024-01-11T10:07:27;32.20;;;18.90;;
75456;SDS011;64036;48.266;14.192;2024-01-11T10:09:55;31.10;;;16.90;;
75456;SDS011;64036;48.266;14.192;2024-01-11T10:12:23;28.30;;;16.20;;
75456;SDS011;64036;48.266;14.192;2024-01-11T10:14:50;30.40;;;18.10;;
75456;SDS011;64036;48.266;14.192;2024-01-11T10:17:19;30.30;;;17.90;;
75456;SDS011;64036;48.266;14.192;2024-01-11T10:19:45;31.70;;;19.10;;
75456;SDS011;64036;48.266;14.192;2024-01-11T10:22:11;33.00;;;18.40;;
75456;SDS011;64036;48.266;14.192;2024-01-11T10:24:42;31.00;;;16.80;;
75456;SDS011;64036;48.266;14.192;2024-01-11T10:27:09;34.10;;;19.20;;
75456;SDS011;64036;48.266;14.192;2024-01-11T10:29:35;34.60;;;18.40;;
75456;SDS011;64036;48.266;14.192;2024-01-11T10:32:06;33.70;;;18.90;;
75456;SDS011;64036;48.266;14.192;2024-01-11T10:34:32;32.00;;;19.40;;
75456;SDS011;64036;48.266;14.192;2024-01-11T10:36:59;33.50;;;18.80;;
75456;SDS011;64036;48.266;14.192;2024-01-11T10:39:25;29.90;;;17.90;;
75456;SDS011;64036;48.266;14.192;2024-01-11T10:42:04;35.80;;;18.90;;
75456;SDS011;64036;48.266;14.192;2024-01-11T10:44:33;33.00;;;18.10;;
75456;SDS011;64036;48.266;14.192;2024-01-11T10:47:02;31.80;;;18.20;;
75456;SDS011;64036;48.266;14.192;2024-01-11T10:49:32;35.00;;;19.30;;
75456;SDS011;64036;48.266;14.192;2024-01-11T10:52:00;32.30;;;18.80;;
75456;SDS011;64036;48.266;14.192;2024-01-11T10:54:28;33.20;;;18.10;;
75456;SDS011;64036;48.266;14.192;2024-01-11T10:56:58;34.70;;;19.50;;
75456;SDS011;64036;48.266;14.192;2024-01-11T10:59:29;31.00;;;18.50;;
75456;SDS011;64036;48.266;14.192;2024-01-11T11:02:04;29.90;;;17.50;;
75456;SDS011;64036;48.266;14.192;2024-01-11T11:04:38;33.30;;;18.80;;
75456;SDS011;64036;48.266;14.192;2024-01-11T11:07:05;32.20;;;18.10;;
75456;SDS011;64036;48.266;14.192;2024-01-11T11:09:35;33.70;;;18.00;;
75456;SDS011;64036;48.266;14.192;2024-01-11T11:12:01;31.60;;;18.40;;
75456;SDS011;64036;48.266;14.192;2024-01-11T11:14:29;36.50;;;18.90;;
75456;SDS011;64036;48.266;14.192;2024-01-11T11:16:57;28.50;;;16.00;;
75456;SDS011;64036;48.266;14.192;2024-01-11T11:19:23;32.60;;;17.60;;
75456;SDS011;64036;48.266;14.192;2024-01-11T11:21:49;32.70;;;17.40;;
75456;SDS011;64036;48.266;14.192;2024-01-11T11:24:16;33.40;;;18.50;;
75456;SDS011;64036;48.266;14.192;2024-01-11T11:26:42;36.40;;;19.70;;
75456;SDS011;64036;48.266;14.192;2024-01-11T11:29:09;39.40;;;22.70;;
75456;SDS011;64036;48.266;14.192;2024-01-11T11:31:41;36.70;;;20.40;;
75456;SDS011;64036;48.266;14.192;2024-01-11T11:34:11;32.80;;;18.60;;
75456;SDS011;64036;48.266;14.192;2024-01-11T11:36:40;36.80;;;18.50;;
75456;SDS011;64036;48.266;14.192;2024-01-11T11:39:10;33.10;;;18.00;;
75456;SDS011;64036;48.266;14.192;2024-01-11T11:44:05;32.30;;;17.50;;
75456;SDS011;64036;48.266;14.192;2024-01-11T11:46:32;30.30;;;18.10;;
75456;SDS011;64036;48.266;14.192;2024-01-11T11:48:58;31.90;;;17.20;;
75456;SDS011;64036;48.266;14.192;2024-01-11T11:51:25;34.70;;;19.70;;
75456;SDS011;64036;48.266;14.192;2024-01-11T11:53:52;33.20;;;17.90;;
75456;SDS011;64036;48.266;14.192;2024-01-11T11:56:20;37.30;;;20.00;;
75456;SDS011;64036;48.266;14.192;2024-01-11T11:58:47;33.40;;;18.20;;
75456;SDS011;64036;48.266;14.192;2024-01-11T12:01:16;34.50;;;19.70;;
75456;SDS011;64036;48.266;14.192;2024-01-11T12:03:43;33.80;;;18.90;;
75456;SDS011;64036;48.266;14.192;2024-01-11T12:08:45;32.90;;;17.80;;
75456;SDS011;64036;48.266;14.192;2024-01-11T12:11:21;33.60;;;18.90;;
75456;SDS011;64036;48.266;14.192;2024-01-11T12:13:48;36.80;;;17.60;;
75456;SDS011;64036;48.266;14.192;2024-01-11T12:16:15;33.90;;;17.90;;
75456;SDS011;64036;48.266;14.192;2024-01-11T12:18:41;33.40;;;18.40;;
75456;SDS011;64036;48.266;14.192;2024-01-11T12:21:10;30.90;;;16.90;;
75456;SDS011;64036;48.266;14.192;2024-01-11T12:23:38;35.60;;;19.30;;
75456;SDS011;64036;48.266;14.192;2024-01-11T12:26:07;31.20;;;17.40;;
75456;SDS011;64036;48.266;14.192;2024-01-11T12:28:40;29.60;;;16.70;;
75456;SDS011;64036;48.266;14.192;2024-01-11T12:31:06;32.20;;;17.10;;
75456;SDS011;64036;48.266;14.192;2024-01-11T12:33:32;32.10;;;17.20;;
75456;SDS011;64036;48.266;14.192;2024-01-11T12:36:00;30.20;;;16.30;;
75456;SDS011;64036;48.266;14.192;2024-01-11T12:38:26;34.60;;;18.30;;
75456;SDS011;64036;48.266;14.192;2024-01-11T12:40:52;33.80;;;18.80;;
75456;SDS011;64036;48.266;14.192;2024-01-11T12:43:17;35.50;;;18.30;;
75456;SDS011;64036;48.266;14.192;2024-01-11T12:45:44;35.50;;;18.60;;
75456;SDS011;64036;48.266;14.192;2024-01-11T12:48:10;33.60;;;17.10;;
75456;SDS011;64036;48.266;14.192;2024-01-11T12:50:39;31.80;;;17.30;;
75456;SDS011;64036;48.266;14.192;2024-01-11T12:53:10;34.70;;;18.60;;
75456;SDS011;64036;48.266;14.192;2024-01-11T12:56:01;32.10;;;18.20;;
75456;SDS011;64036;48.266;14.192;2024-01-11T12:58:29;34.60;;;19.00;;
75456;SDS011;64036;48.266;14.192;2024-01-11T13:00:55;38.10;;;20.10;;
75456;SDS011;64036;48.266;14.192;2024-01-11T13:03:20;29.90;;;17.50;;
75456;SDS011;64036;48.266;14.192;2024-01-11T13:05:49;33.90;;;18.20;;
75456;SDS011;64036;48.266;14.192;2024-01-11T13:08:14;37.90;;;17.90;;
75456;SDS011;64036;48.266;14.192;2024-01-11T13:10:40;34.90;;;18.30;;
75456;SDS011;64036;48.266;14.192;2024-01-11T13:13:06;31.10;;;15.50;;
75456;SDS011;64036;48.266;14.192;2024-01-11T13:15:33;38.30;;;18.40;;
75456;SDS011;64036;48.266;14.192;2024-01-11T13:17:59;33.60;;;16.70;;
75456;SDS011;64036;48.266;14.192;2024-01-11T13:20:26;38.30;;;19.00;;
75456;SDS011;64036;48.266;14.192;2024-01-11T13:23:14;40.80;;;19.40;;
75456;SDS011;64036;48.266;14.192;2024-01-11T13:25:42;34.60;;;17.80;;
75456;SDS011;64036;48.266;14.192;2024-01-11T13:28:09;30.30;;;16.20;;
75456;SDS011;64036;48.266;14.192;2024-01-11T13:30:37;34.90;;;18.00;;
75456;SDS011;64036;48.266;14.192;2024-01-11T13:33:07;40.40;;;19.10;;
75456;SDS011;64036;48.266;14.192;2024-01-11T13:35:38;34.20;;;17.30;;
75456;SDS011;64036;48.266;14.192;2024-01-11T13:38:07;45.60;;;21.10;;
75456;SDS011;64036;48.266;14.192;2024-01-11T13:40:33;32.00;;;16.70;;
75456;SDS011;64036;48.266;14.192;2024-01-11T13:42:59;37.50;;;17.90;;
75456;SDS011;64036;48.266;14.192;2024-01-11T13:45:26;33.00;;;16.20;;
75456;SDS011;64036;48.266;14.192;2024-01-11T13:47:53;31.40;;;15.40;;
75456;SDS011;64036;48.266;14.192;2024-01-11T13:50:20;32.00;;;15.50;;
75456;SDS011;64036;48.266;14.192;2024-01-11T13:52:46;41.80;;;19.80;;
75456;SDS011;64036;48.266;14.192;2024-01-11T13:55:12;37.60;;;18.50;;
75456;SDS011;64036;48.266;14.192;2024-01-11T13:57:39;32.40;;;15.70;;
75456;SDS011;64036;48.266;14.192;2024-01-11T14:00:06;32.20;;;17.10;;
75456;SDS011;64036;48.266;14.192;2024-01-11T14:02:40;31.70;;;16.10;;
75456;SDS011;64036;48.266;14.192;2024-01-11T14:05:07;34.20;;;15.50;;
75456;SDS011;64036;48.266;14.192;2024-01-11T14:07:37;31.00;;;15.40;;
75456;SDS011;64036;48.266;14.192;2024-01-11T14:10:05;31.60;;;15.30;;
75456;SDS011;64036;48.266;14.192;2024-01-11T14:12:32;35.30;;;16.40;;
75456;SDS011;64036;48.266;14.192;2024-01-11T14:14:58;31.00;;;15.50;;
75456;SDS011;64036;48.266;14.192;2024-01-11T14:17:25;38.90;;;17.70;;
75456;SDS011;64036;48.266;14.192;2024-01-11T14:19:51;33.60;;;15.80;;
75456;SDS011;64036;48.266;14.192;2024-01-11T14:22:17;31.60;;;15.90;;
75456;SDS011;64036;48.266;14.192;2024-01-11T14:24:46;31.90;;;14.90;;
75456;SDS011;64036;48.266;14.192;2024-01-11T14:27:11;34.60;;;16.30;;
75456;SDS011;64036;48.266;14.192;2024-01-11T14:29:39;34.60;;;17.00;;
75456;SDS011;64036;48.266;14.192;2024-01-11T14:32:05;33.30;;;16.00;;
75456;SDS011;64036;48.266;14.192;2024-01-11T14:34:36;32.20;;;15.00;;
75456;SDS011;64036;48.266;14.192;2024-01-11T14:37:04;32.90;;;15.90;;
75456;SDS011;64036;48.266;14.192;2024-01-11T14:39:30;35.10;;;16.50;;
75456;SDS011;64036;48.266;14.192;2024-01-11T14:41:55;32.60;;;16.00;;
75456;SDS011;64036;48.266;14.192;2024-01-11T14:44:21;33.50;;;15.30;;
75456;SDS011;64036;48.266;14.192;2024-01-11T14:46:47;34.50;;;16.10;;
75456;SDS011;64036;48.266;14.192;2024-01-11T14:49:12;27.30;;;13.60;;
75456;SDS011;64036;48.266;14.192;2024-01-11T14:51:39;28.30;;;13.20;;
75456;SDS011;64036;48.266;14.192;2024-01-11T14:54:05;31.00;;;14.40;;
75456;SDS011;64036;48.266;14.192;2024-01-11T14:56:31;34.10;;;16.30;;
75456;SDS011;64036;48.266;14.192;2024-01-11T14:58:57;32.80;;;14.90;;
75456;SDS011;64036;48.266;14.192;2024-01-11T15:01:25;29.10;;;14.10;;
75456;SDS011;64036;48.266;14.192;2024-01-11T15:03:50;31.10;;;13.60;;
75456;SDS011;64036;48.266;14.192;2024-01-11T15:06:19;33.30;;;15.20;;
75456;SDS011;64036;48.266;14.192;2024-01-11T15:08:45;38.50;;;17.90;;